createdAt,value
2023-03-03T00:00:14.175Z,14.95
2023-03-03T00:03:22.220Z,15.43
2023-03-03T00:06:29.798Z,14.50
2023-03-03T00:09:35.993Z,14.52
2023-03-03T00:12:48.869Z,16.20
2023-03-03T00:15:56.108Z,15.70
2023-03-03T00:19:00.710Z,16.65
2023-03-03T00:22:20.417Z,17.25
2023-03-03T00:25:31.265Z,16.45
2023-03-03T00:28:47.672Z,17.05
2023-03-03T00:31:51.981Z,17.13
2023-03-03T00:35:19.235Z,16.42
2023-03-03T00:38:25.687Z,16.25
2023-03-03T00:41:31.702Z,16.73
2023-03-03T00:44:43.131Z,21.95
2023-03-03T00:47:49.636Z,16.50
2023-03-03T00:50:54.785Z,16.05
2023-03-03T00:54:03.010Z,16.67
2023-03-03T00:57:07.002Z,16.70
2023-03-03T01:00:15.061Z,17.05
2023-03-03T01:03:21.112Z,17.27
2023-03-03T01:06:27.620Z,16.15
2023-03-03T01:09:33.931Z,16.42
2023-03-03T01:12:40.434Z,16.42
2023-03-03T01:15:45.322Z,15.80
2023-03-03T01:18:53.085Z,16.15
2023-03-03T01:21:57.101Z,15.68
2023-03-03T01:25:05.303Z,16.88
2023-03-03T01:28:09.203Z,17.55
2023-03-03T01:31:15.492Z,18.70
2023-03-03T01:34:19.721Z,17.95
2023-03-03T01:37:26.612Z,17.70
2023-03-03T01:40:33.974Z,17.45
2023-03-03T01:43:47.236Z,18.17
2023-03-03T01:46:58.483Z,16.75
2023-03-03T01:50:08.130Z,17.53
2023-03-03T01:53:19.876Z,14.95
2023-03-03T01:59:36.134Z,16.50
2023-03-03T02:02:43.948Z,16.35
2023-03-03T02:05:57.142Z,18.40
2023-03-03T02:09:09.189Z,17.33
2023-03-03T02:12:19.821Z,16.92
2023-03-03T02:15:28.516Z,17.80
2023-03-03T02:18:32.606Z,15.23
2023-03-03T02:21:38.895Z,16.92
2023-03-03T02:24:46.898Z,16.65
2023-03-03T02:27:56.588Z,16.35
2023-03-03T02:31:02.189Z,16.33
2023-03-03T02:34:08.330Z,17.35
2023-03-03T02:37:12.368Z,18.08
2023-03-03T02:40:22.199Z,18.00
2023-03-03T02:43:31.524Z,18.25
2023-03-03T02:46:39.933Z,17.27
2023-03-03T02:49:44.651Z,16.58
2023-03-03T02:52:50.847Z,18.10
2023-03-03T02:55:55.164Z,17.38
2023-03-03T02:59:03.665Z,15.48
2023-03-03T03:02:11.837Z,18.02
2023-03-03T03:05:18.098Z,15.95
2023-03-03T03:08:22.426Z,16.15
2023-03-03T03:11:28.516Z,18.70
2023-03-03T03:14:35.183Z,16.33
2023-03-03T03:17:41.698Z,16.38
2023-03-03T03:20:48.377Z,15.88
2023-03-03T03:23:55.073Z,15.32
2023-03-03T03:26:59.796Z,16.08
2023-03-03T03:30:10.957Z,15.50
2023-03-03T03:33:16.193Z,16.27
2023-03-03T03:36:22.550Z,16.02
2023-03-03T03:39:26.698Z,16.95
2023-03-03T03:42:34.189Z,17.02
2023-03-03T03:45:40.479Z,14.77
2023-03-03T03:48:47.805Z,15.85
2023-03-03T03:51:53.887Z,14.88
2023-03-03T03:55:03.483Z,15.57
2023-03-03T03:58:07.773Z,15.13
2023-03-03T04:01:16.162Z,15.50
2023-03-03T04:04:24.483Z,16.23
2023-03-03T04:07:31.099Z,16.35
2023-03-03T04:10:36.940Z,16.70
2023-03-03T04:13:43.939Z,15.48
2023-03-03T04:16:51.098Z,15.68
2023-03-03T04:19:57.026Z,15.13
2023-03-03T04:23:02.049Z,15.07
2023-03-03T04:26:10.939Z,16.42
2023-03-03T04:29:15.980Z,16.63
2023-03-03T04:32:25.187Z,15.38
2023-03-03T04:35:29.344Z,15.25
2023-03-03T04:38:35.916Z,16.23
2023-03-03T04:41:40.213Z,14.15
2023-03-03T04:44:46.578Z,16.33
2023-03-03T04:47:53.230Z,15.48
2023-03-03T04:51:00.040Z,14.88
2023-03-03T04:54:04.789Z,13.88
2023-03-03T04:57:10.788Z,13.65
2023-03-03T05:00:18.207Z,14.45
2023-03-03T05:03:26.543Z,15.05
2023-03-03T05:06:30.714Z,14.57
2023-03-03T05:09:36.966Z,14.85
2023-03-03T05:12:40.951Z,13.90
2023-03-03T05:15:51.697Z,16.50
2023-03-03T05:18:57.687Z,15.25
2023-03-03T05:22:03.947Z,17.05
2023-03-03T05:25:10.524Z,14.82
2023-03-03T05:28:17.475Z,13.40
2023-03-03T05:31:21.739Z,15.48
2023-03-03T05:34:29.826Z,14.85
2023-03-03T05:37:33.716Z,14.88
2023-03-03T05:40:40.818Z,14.13
2023-03-03T05:43:45.061Z,14.90
2023-03-03T05:46:51.291Z,15.70
2023-03-03T05:49:57.380Z,15.30
2023-03-03T05:53:03.781Z,15.88
2023-03-03T05:56:08.645Z,14.13
2023-03-03T05:59:14.622Z,14.70
2023-03-03T06:02:18.820Z,15.95
2023-03-03T06:05:26.853Z,15.65
2023-03-03T06:08:32.139Z,15.38
2023-03-03T06:11:39.188Z,14.27
2023-03-03T06:14:43.271Z,13.52
2023-03-03T06:17:49.657Z,13.85
2023-03-03T06:20:56.788Z,13.75
2023-03-03T06:24:02.878Z,14.80
2023-03-03T06:27:07.192Z,12.80
2023-03-03T06:30:14.356Z,12.63
2023-03-03T06:33:18.188Z,12.45
2023-03-03T06:36:26.863Z,11.45
2023-03-03T06:39:30.773Z,12.32
2023-03-03T06:42:36.704Z,10.93
2023-03-03T06:45:40.657Z,10.95
2023-03-03T06:48:46.652Z,12.95
2023-03-03T06:51:52.641Z,10.02
2023-03-03T06:55:00.880Z,10.50
2023-03-03T06:58:11.388Z,11.20
2023-03-03T07:01:19.132Z,11.30
2023-03-03T07:04:30.309Z,10.30
2023-03-03T07:07:38.499Z,8.80
2023-03-03T07:10:42.654Z,10.50
2023-03-03T07:13:51.202Z,11.73
2023-03-03T07:17:01.001Z,10.02
2023-03-03T07:20:20.760Z,11.38
2023-03-03T07:23:31.658Z,10.68
2023-03-03T07:26:37.704Z,11.80
2023-03-03T07:29:42.575Z,11.35
2023-03-03T07:32:48.998Z,11.45
2023-03-03T07:35:55.340Z,9.82
2023-03-03T07:39:06.756Z,10.68
2023-03-03T07:42:22.177Z,9.38
2023-03-03T07:45:39.358Z,9.83
2023-03-03T07:48:44.631Z,9.90
2023-03-03T07:51:56.829Z,10.43
2023-03-03T07:55:20.870Z,10.27
2023-03-03T07:58:37.629Z,9.52
2023-03-03T08:01:43.511Z,9.77
2023-03-03T08:04:52.088Z,9.25
2023-03-03T08:07:57.313Z,9.32
2023-03-03T08:11:09.111Z,8.95
2023-03-03T08:14:16.754Z,10.13
2023-03-03T08:17:24.416Z,9.57
2023-03-03T08:20:53.311Z,8.60
2023-03-03T08:23:59.875Z,9.63
2023-03-03T08:27:05.804Z,8.93
2023-03-03T08:30:13.260Z,9.68
2023-03-03T08:33:17.693Z,8.80
2023-03-03T08:36:23.590Z,9.45
2023-03-03T08:39:27.587Z,9.88
2023-03-03T08:42:37.309Z,8.70
2023-03-03T08:45:41.425Z,8.90
2023-03-03T08:48:47.573Z,8.15
2023-03-03T08:51:54.041Z,9.32
2023-03-03T08:55:00.012Z,8.15
2023-03-03T08:58:06.073Z,8.20
2023-03-03T09:01:12.002Z,8.43
2023-03-03T09:04:16.014Z,7.50
2023-03-03T09:07:22.237Z,8.82
2023-03-03T09:13:36.813Z,7.22
2023-03-03T09:16:43.269Z,8.48
2023-03-03T09:19:49.789Z,7.82
2023-03-03T09:22:53.693Z,7.13
2023-03-03T09:26:13.046Z,7.80
2023-03-03T09:29:28.413Z,7.22
2023-03-03T09:32:38.634Z,8.30
2023-03-03T09:35:42.923Z,8.15
2023-03-03T09:38:50.367Z,8.50
2023-03-03T09:42:24.631Z,8.02
2023-03-03T09:45:51.152Z,8.82
2023-03-03T09:49:04.138Z,7.60
2023-03-03T09:52:23.477Z,7.15
2023-03-03T09:55:38.571Z,6.25
2023-03-03T09:59:08.119Z,6.43
2023-03-03T10:02:30.916Z,6.38
2023-03-03T10:05:46.530Z,6.78
2023-03-03T10:09:04.636Z,5.80
2023-03-03T10:12:17.789Z,6.32
2023-03-03T10:15:37.378Z,6.68
2023-03-03T10:18:54.505Z,4.55
2023-03-03T10:22:08.581Z,5.38
2023-03-03T10:25:41.946Z,5.53
2023-03-03T10:29:09.806Z,4.72
2023-03-03T10:32:49.027Z,5.22
2023-03-03T10:36:25.247Z,4.07
2023-03-03T10:39:44.450Z,4.47
2023-03-03T10:43:06.623Z,3.88
2023-03-03T10:46:43.841Z,4.15
2023-03-03T10:49:57.927Z,3.30
2023-03-03T10:53:20.910Z,3.08
2023-03-03T10:56:51.699Z,4.88
2023-03-03T11:00:16.496Z,4.45
2023-03-03T11:03:46.617Z,3.78
2023-03-03T11:06:59.160Z,3.30
2023-03-03T11:10:19.004Z,3.33
2023-03-03T11:13:33.523Z,2.88
2023-03-03T11:16:46.792Z,3.20
2023-03-03T11:20:04.257Z,3.28
2023-03-03T11:23:26.320Z,3.45
2023-03-03T11:26:56.109Z,3.72
2023-03-03T11:30:12.711Z,2.90
2023-03-03T11:33:24.582Z,2.92
2023-03-03T11:36:35.066Z,3.28
2023-03-03T11:39:43.626Z,2.88
2023-03-03T11:43:05.376Z,3.60
2023-03-03T11:46:15.376Z,3.70
2023-03-03T11:49:25.229Z,2.85
2023-03-03T11:52:41.755Z,2.70
2023-03-03T11:55:50.380Z,3.42
2023-03-03T11:59:12.074Z,3.15
2023-03-03T12:02:37.522Z,3.13
2023-03-03T12:06:00.811Z,3.13
2023-03-03T12:09:34.655Z,3.15
2023-03-03T12:12:45.323Z,3.15
2023-03-03T12:15:56.982Z,2.90
2023-03-03T12:19:17.569Z,2.22
2023-03-03T12:22:36.123Z,2.33
2023-03-03T12:25:44.373Z,3.10
2023-03-03T12:28:54.620Z,3.53
2023-03-03T12:32:12.279Z,3.45
2023-03-03T12:35:28.096Z,3.78
2023-03-03T12:38:44.755Z,3.40
2023-03-03T12:41:55.453Z,2.85
2023-03-03T12:45:13.024Z,2.65
2023-03-03T12:48:23.349Z,2.78
2023-03-03T12:51:43.622Z,2.22
2023-03-03T12:54:57.784Z,2.00
2023-03-03T12:58:15.147Z,2.60
2023-03-03T13:01:36.145Z,2.95
2023-03-03T13:04:54.462Z,2.63
2023-03-03T13:08:31.366Z,2.63
2023-03-03T13:12:00.119Z,2.95
2023-03-03T13:15:13.816Z,2.90
2023-03-03T13:18:32.014Z,3.08
2023-03-03T13:25:00.612Z,3.00
2023-03-03T13:28:08.802Z,3.08
2023-03-03T13:31:24.643Z,3.20
2023-03-03T13:34:41.038Z,2.72
2023-03-03T13:37:54.587Z,3.15
2023-03-03T13:41:05.528Z,3.75
2023-03-03T13:44:16.746Z,3.13
2023-03-03T13:47:26.836Z,3.35
2023-03-03T13:50:39.589Z,3.20
2023-03-03T13:53:51.895Z,3.10
2023-03-03T13:57:18.416Z,3.10
2023-03-03T14:00:38.456Z,2.47
2023-03-03T14:03:57.052Z,2.80
2023-03-03T14:07:08.523Z,1.95
2023-03-03T14:10:22.585Z,2.13
2023-03-03T14:13:31.698Z,2.60
2023-03-03T14:16:53.177Z,2.75
2023-03-03T14:20:05.583Z,2.70
2023-03-03T14:23:18.005Z,2.63
2023-03-03T14:26:23.811Z,2.30
2023-03-03T14:29:34.328Z,2.35
2023-03-03T14:32:45.316Z,2.30
2023-03-03T14:36:02.376Z,2.30
2023-03-03T14:39:32.003Z,2.40
2023-03-03T14:42:48.302Z,2.50
2023-03-03T14:45:53.249Z,2.70
2023-03-03T14:49:02.046Z,2.10
2023-03-03T14:52:13.896Z,2.20
2023-03-03T14:55:37.497Z,2.55
2023-03-03T14:58:43.965Z,2.28
2023-03-03T15:01:58.146Z,2.53
2023-03-03T15:05:23.443Z,2.00
2023-03-03T15:08:34.706Z,1.77
2023-03-03T15:11:38.622Z,1.92
2023-03-03T15:14:48.552Z,1.70
2023-03-03T15:18:02.989Z,1.60
2023-03-03T15:21:11.882Z,2.38
2023-03-03T15:24:24.511Z,1.38
2023-03-03T15:27:36.749Z,1.85
2023-03-03T15:30:50.435Z,1.80
2023-03-03T15:34:05.448Z,1.92
2023-03-03T15:37:26.110Z,2.08
2023-03-03T15:40:41.343Z,2.25
2023-03-03T15:43:53.921Z,1.70
2023-03-03T15:47:25.666Z,2.63
2023-03-03T15:50:45.329Z,2.28
2023-03-03T15:54:26.187Z,2.72
2023-03-03T15:57:42.284Z,2.47
2023-03-03T16:01:02.543Z,3.28
2023-03-03T16:04:16.664Z,2.92
2023-03-03T16:07:32.962Z,2.80
2023-03-03T16:14:05.685Z,2.63
2023-03-03T16:17:23.720Z,2.75
2023-03-03T16:20:39.616Z,3.55
2023-03-03T16:23:49.056Z,4.45
2023-03-03T16:27:01.972Z,5.10
2023-03-03T16:30:18.432Z,4.35
2023-03-03T16:33:32.024Z,4.85
2023-03-03T16:36:53.520Z,4.47
2023-03-03T16:40:09.653Z,4.45
2023-03-03T16:43:23.336Z,2.95
2023-03-03T16:46:35.468Z,3.80
2023-03-03T16:49:49.720Z,2.42
2023-03-03T16:53:05.409Z,3.40
2023-03-03T16:56:15.691Z,2.13
2023-03-03T16:59:47.360Z,1.42
2023-03-03T17:03:18.941Z,1.80
2023-03-03T17:06:32.978Z,2.60
2023-03-03T17:09:54.488Z,1.88
2023-03-03T17:13:25.965Z,3.20
2023-03-03T17:16:51.153Z,3.05
2023-03-03T17:20:13.372Z,3.63
2023-03-03T17:23:47.414Z,2.50
2023-03-03T17:27:14.026Z,2.72
2023-03-03T17:30:24.309Z,2.15
2023-03-03T17:33:50.188Z,1.90
2023-03-03T17:37:15.930Z,2.08
2023-03-03T17:40:39.549Z,2.35
2023-03-03T17:43:54.360Z,1.92
2023-03-03T17:47:07.679Z,2.30
2023-03-03T17:50:22.633Z,2.45
2023-03-03T17:53:49.686Z,1.95
2023-03-03T17:57:05.894Z,1.92
2023-03-03T18:00:28.163Z,2.53
2023-03-03T18:04:13.954Z,2.63
2023-03-03T18:07:42.051Z,2.60
2023-03-03T18:11:16.806Z,3.83
2023-03-03T18:14:56.505Z,2.30
2023-03-03T18:18:11.282Z,2.55
2023-03-03T18:21:22.496Z,3.25
2023-03-03T18:24:37.606Z,3.70
2023-03-03T18:27:44.861Z,3.47
2023-03-03T18:31:00.441Z,3.13
2023-03-03T18:34:31.383Z,3.13
2023-03-03T18:37:44.498Z,2.90
2023-03-03T18:40:53.225Z,2.80
2023-03-03T18:44:03.935Z,3.78
2023-03-03T18:47:14.369Z,2.20
2023-03-03T18:50:33.073Z,3.95
2023-03-03T18:53:39.304Z,5.00
2023-03-03T18:56:46.762Z,3.72
2023-03-03T19:00:11.593Z,3.42
2023-03-03T19:03:27.842Z,4.40
2023-03-03T19:07:10.197Z,4.30
2023-03-03T19:10:44.062Z,4.65
2023-03-03T19:13:51.728Z,4.97
2023-03-03T19:16:57.185Z,5.57
2023-03-03T19:20:11.272Z,5.68
2023-03-03T19:23:19.886Z,5.05
2023-03-03T19:26:54.651Z,3.38
2023-03-03T19:30:23.150Z,3.40
2023-03-03T19:33:50.888Z,3.03
2023-03-03T19:37:11.221Z,3.67
2023-03-03T19:40:26.827Z,3.45
2023-03-03T19:43:41.003Z,3.55
2023-03-03T19:46:58.056Z,3.83
2023-03-03T19:50:17.773Z,3.85
2023-03-03T19:53:32.863Z,4.15
2023-03-03T19:56:43.654Z,4.85
2023-03-03T19:59:53.948Z,6.28
2023-03-03T20:03:26.836Z,5.72
2023-03-03T20:06:42.206Z,5.88
2023-03-03T20:09:56.092Z,5.30
2023-03-03T20:13:15.365Z,6.18
2023-03-03T20:16:32.890Z,4.32
2023-03-03T20:19:52.102Z,5.35
2023-03-03T20:23:05.447Z,4.35
2023-03-03T20:26:18.390Z,4.80
2023-03-03T20:29:41.642Z,4.97
2023-03-03T20:32:59.558Z,5.32
2023-03-03T20:36:12.038Z,4.32
2023-03-03T20:39:29.297Z,5.00
2023-03-03T20:42:48.498Z,6.45
2023-03-03T20:46:07.187Z,5.47
2023-03-03T20:49:35.753Z,4.32
2023-03-03T20:52:48.958Z,4.25
2023-03-03T20:56:02.298Z,3.92
2023-03-03T20:59:19.733Z,3.53
2023-03-03T21:02:31.930Z,3.75
2023-03-03T21:05:54.973Z,4.97
2023-03-03T21:08:59.296Z,6.15
2023-03-03T21:12:13.005Z,6.90
2023-03-03T21:15:27.480Z,4.78
2023-03-03T21:18:35.363Z,4.82
2023-03-03T21:21:41.677Z,4.78
2023-03-03T21:24:53.259Z,3.80
2023-03-03T21:28:14.933Z,3.20
2023-03-03T21:31:21.098Z,4.18
2023-03-03T21:34:29.376Z,3.47
2023-03-03T21:37:46.942Z,3.92
2023-03-03T21:41:01.372Z,3.08
2023-03-03T21:44:32.336Z,4.18
2023-03-03T21:47:36.509Z,3.60
2023-03-03T21:50:48.275Z,4.25
2023-03-03T21:53:52.381Z,4.25
2023-03-03T21:56:58.380Z,4.65
2023-03-03T22:00:02.328Z,3.63
2023-03-03T22:03:08.748Z,3.70
2023-03-03T22:06:14.593Z,3.40
2023-03-03T22:09:21.118Z,3.20
2023-03-03T22:12:25.335Z,3.15
2023-03-03T22:15:33.321Z,3.92
2023-03-03T22:18:37.579Z,3.15
2023-03-03T22:21:46.115Z,4.55
2023-03-03T22:24:50.272Z,3.83
2023-03-03T22:27:56.145Z,3.20
2023-03-03T22:34:05.926Z,4.18
2023-03-03T22:37:11.967Z,3.80
2023-03-03T22:40:18.478Z,3.88
2023-03-03T22:43:22.587Z,3.38
2023-03-03T22:46:28.553Z,3.65
2023-03-03T22:49:32.650Z,3.88
2023-03-03T22:52:40.487Z,4.28
2023-03-03T22:55:44.437Z,3.85
2023-03-03T22:58:51.075Z,3.42
2023-03-03T23:01:55.546Z,3.33
2023-03-03T23:05:07.602Z,3.40
2023-03-03T23:08:16.214Z,3.80
2023-03-03T23:11:24.032Z,3.92
2023-03-03T23:14:30.187Z,4.18
2023-03-03T23:17:36.167Z,2.83
2023-03-03T23:23:49.625Z,2.65
2023-03-03T23:26:56.271Z,2.53
2023-03-03T23:30:02.365Z,4.03
2023-03-03T23:33:06.539Z,3.20
2023-03-03T23:36:12.660Z,2.97
2023-03-03T23:39:18.661Z,2.38
2023-03-03T23:42:27.157Z,2.80
2023-03-03T23:45:31.282Z,3.13
2023-03-03T23:48:37.449Z,2.33
2023-03-03T23:51:42.161Z,2.70
2023-03-03T23:54:50.826Z,2.65
2023-03-03T23:57:54.958Z,2.70
